Newton, Iowa
Current Conditions -  °F | °C
As of 12:15 PM on Monday 26 Jan 2015 (Local Time) from KTNU Reporting Station
Few Clouds Few Clouds  
Wind Chill: 35°   Ceiling: Unl
Heat Index: 43°   Visibility: 10mi
Dew Point: 36°   Wind: 16mph
Humidity: 76%   Direction: 300°WNW
Pressure: 29.8"   Gusts: NA
Location:  41.7°N, 93.04°W
Report Text: KTNU 261815Z AUTO 30014KT 10SM FEW022 06/02 A2980 RMK AO2
Loading
Personal Weather Stations






























Interactive Weather Map New forecast layout! Learn more

10-Day Weather Forecast

Advertisements
Track Severe Weather on mobile